»·PEaware :: N286WF KOXR-KSBP

N286WF :: KOXR-KSBP

FLIGHT INFORMATION

Flight Status: Arrived
Operator: Privately registered:
United States
More flights under this callsign
Pilot: Frank W. (16848)
Aircraft: Unknown
(P28U)
More flights by this aircraft type
Origin: KOXR Oxnard
United States
Destination: KSBP San Luis Co Regl
United States
More flights between these airports :: More routes between these airports
Route: RZS GVO GLJ MQO
File this flight plan on PilotEdge
Remarks: no advisories
Altitude:
(Current/Filed)
9,500ft
Speed:
(Current/Filed)
140kts
Departed: 30-Dec-18 06:55 PM
Arrived: 30-Dec-18 07:52 PM
Distance/Time
Traveled:
94nm/0:57
Distance/Time
To Go:
Arrived

Flight Plot

Page will automatically refresh every two minutes.


Map Options




Map Legend


Flown Route
Filed Route
Departure Airport
Arrival Airport
Navaid (VOR, NDB)
Fix

Horizontal Profiles

Position Reports

Time Latitude Longitude Heading Altitude Ground
Speed
30-Dec-18 18:41 34.199076 -119.199711 111 38ft 3kts
30-Dec-18 18:42 34.199055 -119.199576 98 38ft 0kts
30-Dec-18 18:43 34.199055 -119.199576 98 38ft 0kts
30-Dec-18 18:44 34.199055 -119.199576 98 38ft 0kts
30-Dec-18 18:45 34.199052 -119.199558 101 38ft 0kts
30-Dec-18 18:46 34.199053 -119.199558 100 38ft 0kts
30-Dec-18 18:47 34.199053 -119.199558 100 38ft 0kts
30-Dec-18 18:48 34.199053 -119.199558 100 38ft 0kts
30-Dec-18 18:49 34.199053 -119.199558 100 38ft 0kts
30-Dec-18 18:50 34.199053 -119.199558 100 38ft 0kts
30-Dec-18 18:52 34.199053 -119.199558 100 38ft 0kts
30-Dec-18 18:53 34.199789 -119.197654 53 38ft 11kts
30-Dec-18 18:54 34.200093 -119.197524 7 38ft 6kts
30-Dec-18 18:55 34.200829 -119.201676 268 47ft 77kts
30-Dec-18 18:56 34.202567 -119.231325 285 1322ft 95kts
30-Dec-18 18:57 34.215919 -119.259188 332 2838ft 113kts
30-Dec-18 18:58 34.237966 -119.280461 302 4542ft 96kts
30-Dec-18 18:59 34.254258 -119.305290 302 6194ft 94kts
30-Dec-18 19:00 34.269368 -119.329945 302 7815ft 91kts
30-Dec-18 19:01 34.282839 -119.355165 302 9388ft 90kts
30-Dec-18 19:02 34.299481 -119.389376 302 9503ft 136kts
30-Dec-18 19:03 34.318942 -119.428565 302 9550ft 135kts
30-Dec-18 19:04 34.339381 -119.466399 304 9572ft 137kts
30-Dec-18 19:05 34.360898 -119.505017 306 9419ft 152kts
30-Dec-18 19:06 34.378824 -119.550510 304 9715ft 153kts
30-Dec-18 19:07 34.401094 -119.596801 312 9417ft 162kts
30-Dec-18 19:08 34.426311 -119.640322 314 9426ft 151kts
30-Dec-18 19:09 34.451326 -119.681807 314 9477ft 152kts
30-Dec-18 19:10 34.478705 -119.720143 320 9526ft 149kts
30-Dec-18 19:11 34.504413 -119.760170 307 9564ft 154kts
30-Dec-18 19:12 34.517063 -119.809660 247 9544ft 178kts
30-Dec-18 19:12 34.495796 -119.849739 243 8915ft 170kts
30-Dec-18 19:14 34.479604 -119.905606 255 8486ft 117kts
30-Dec-18 19:14 34.476928 -119.937890 282 8642ft 116kts
30-Dec-18 19:15 34.485276 -119.974275 301 9537ft 124kts
30-Dec-18 19:17 34.511756 -120.014146 317 9654ft 139kts
30-Dec-18 19:17 34.529003 -120.048590 297 9382ft 144kts
30-Dec-18 19:18 34.530417 -120.095045 273 9442ft 142kts
30-Dec-18 19:19 34.530971 -120.143317 301 9283ft 135kts
30-Dec-18 19:20 34.552962 -120.174813 313 9731ft 122kts
30-Dec-18 19:21 34.576061 -120.208488 314 9651ft 132kts
30-Dec-18 19:22 34.603120 -120.238072 323 9617ft 131kts
30-Dec-18 19:23 34.631447 -120.266282 323 9567ft 132kts
30-Dec-18 19:24 34.659712 -120.294353 323 9532ft 132kts
30-Dec-18 19:25 34.688092 -120.322586 323 9511ft 131kts
30-Dec-18 19:26 34.716827 -120.349882 326 9500ft 131kts
30-Dec-18 19:27 34.746386 -120.375928 326 9541ft 131kts
30-Dec-18 19:28 34.775886 -120.401904 326 9560ft 127kts
30-Dec-18 19:29 34.803783 -120.425878 328 8666ft 125kts
30-Dec-18 19:30 34.832625 -120.448269 328 7744ft 125kts
30-Dec-18 19:31 34.858865 -120.467993 328 6708ft 119kts
30-Dec-18 19:32 34.887352 -120.488162 330 5330ft 116kts
30-Dec-18 19:33 34.914136 -120.505920 330 4615ft 102kts
30-Dec-18 19:34 34.938164 -120.522483 330 4566ft 103kts
30-Dec-18 19:35 34.965932 -120.541559 330 4348ft 121kts
30-Dec-18 19:36 34.997114 -120.562842 330 3941ft 134kts
30-Dec-18 19:37 35.030598 -120.584189 333 3483ft 132kts
30-Dec-18 19:38 35.059627 -120.605974 315 3689ft 116kts
30-Dec-18 19:39 35.082279 -120.635872 313 3688ft 124kts
30-Dec-18 19:40 35.103245 -120.668517 308 3711ft 120kts
30-Dec-18 19:41 35.129547 -120.692794 339 3515ft 133kts
30-Dec-18 19:42 35.161939 -120.707209 331 3575ft 120kts
30-Dec-18 19:43 35.189420 -120.730500 321 3573ft 120kts
30-Dec-18 19:44 35.216227 -120.753311 2 3552ft 122kts
30-Dec-18 19:45 35.237262 -120.716263 62 2666ft 123kts
30-Dec-18 19:46 35.243079 -120.679909 96 1737ft 99kts
30-Dec-18 19:47 35.225248 -120.656117 142 1167ft 105kts
30-Dec-18 19:48 35.204880 -120.634542 72 1347ft 90kts
30-Dec-18 19:49 35.221769 -120.618177 347 867ft 69kts
30-Dec-18 19:50 35.232516 -120.632801 307 282ft 55kts
30-Dec-18 19:51 35.236716 -120.639853 316 215ft 11kts
30-Dec-18 19:52 35.237513 -120.639900 24 215ft 0kts
30-Dec-18 19:53 35.237120 -120.638723 122 215ft 16kts
30-Dec-18 19:54 35.237600 -120.636603 133 215ft 13kts
30-Dec-18 19:55 35.236722 -120.636773 266 215ft 0kts
30-Dec-18 19:56 35.236722 -120.636773 266 215ft 0kts
30-Dec-18 19:57 35.236722 -120.636773 266 215ft 0kts
30-Dec-18 19:58 35.236722 -120.636773 266 215ft 0kts
30-Dec-18 19:59 35.236722 -120.636773 266 215ft 0kts

Navigation Log

Ident Type
Flight plan parsing failed, navigation log unavailable